Time;durP1;ratioP1;P1;durP2;ratioP2;P2;SDS_P1;SDS_P2;PMS_P1;PMS_P2;Temp;Humidity;BMP_temperature;BMP_pressure;BME280_temperature;BME280_humidity;BME280_pressure;Samples;Min_cycle;Max_cycle;Signal;HPM_P1;HPM_P2
2023/01/22 00:02:04;;;;;;;;;;;;;;;3.37;58.07;102090.97;4999723;28;7201;-75
2023/01/22 00:04:31;;;;;;;;;;;;;;;3.39;57.49;102086.09;4987843;28;6795;-75
2023/01/22 00:06:56;;;;;;;;;;;;;;;3.41;58.01;102079.53;4986851;28;7967;-75
2023/01/22 00:09:22;;;;;;;;;;;;;;;3.44;58.06;102092.53;4989317;28;7003;-75
2023/01/22 00:11:48;;;;;;;;;;;;;;;3.45;57.58;102081.66;4988316;28;7152;-75
2023/01/22 00:14:15;;;;;;;;;;;;;;;3.46;57.75;102073.31;5001208;28;7200;-75
2023/01/22 00:16:40;;;;;;;;;;;;;;;3.49;57.87;102071.09;4979449;28;7002;-75
2023/01/22 00:19:07;;;;;;;;;;;;;;;3.51;57.29;102074.66;5003395;28;7290;-75
2023/01/22 00:21:33;;;;;;;;;;;;;;;3.54;58.37;102066.50;4985067;28;6792;-75
2023/01/22 00:23:59;;;;;;;;;;;;;;;3.55;58.00;102063.22;5002483;28;6796;-75
2023/01/22 00:26:25;;;;;;;;;;;;;;;3.57;57.16;102062.63;4999796;28;7221;-75
2023/01/22 00:28:51;;;;;;;;;;;;;;;3.54;57.93;102046.22;5004190;28;6780;-75
2023/01/22 00:31:18;;;;;;;;;;;;;;;3.53;57.34;102054.56;4986120;28;6856;-75
2023/01/22 00:33:46;;;;;;;;;;;;;;;3.52;57.70;102042.63;4986754;28;6800;-75
2023/01/22 00:36:20;;;;;;;;;;;;;;;3.51;57.44;102048.44;4984170;28;6898;-75
2023/01/22 00:38:47;;;;;;;;;;;;;;;3.51;58.34;102045.91;4985038;28;6776;-75
2023/01/22 00:41:15;;;;;;;;;;;;;;;3.50;58.48;102045.00;4993253;28;6804;-75
2023/01/22 00:43:41;;;;;;;;;;;;;;;3.51;57.11;102046.78;4986626;28;6800;-75
2023/01/22 00:46:10;;;;;;;;;;;;;;;3.52;58.34;102046.03;5002626;28;6860;-75
2023/01/22 00:48:37;;;;;;;;;;;;;;;3.54;58.28;102042.06;4985828;28;6800;-75
2023/01/22 00:51:07;;;;;;;;;;;;;;;3.57;58.07;102036.38;4984000;28;6785;-75
2023/01/22 00:53:36;;;;;;;;;;;;;;;3.59;57.65;102034.91;4966887;28;7461;-75
2023/01/22 00:56:03;;;;;;;;;;;;;;;3.61;57.83;102048.63;5001762;28;7248;-75
2023/01/22 00:58:29;;;;;;;;;;;;;;;3.64;57.86;102046.41;4985932;28;6830;-75
2023/01/22 01:00:55;;;;;;;;;;;;;;;3.67;58.31;102041.66;4986516;28;6768;-75
2023/01/22 01:03:30;;;;;;;;;;;;;;;3.70;58.38;102039.44;4970819;28;7219;-75
2023/01/22 01:06:01;;;;;;;;;;;;;;;3.73;58.32;102042.28;4979836;28;6800;-75
2023/01/22 01:08:30;;;;;;;;;;;;;;;3.75;57.75;102050.06;4994267;28;6816;-74
2023/01/22 01:11:00;;;;;;;;;;;;;;;3.77;57.43;102040.03;4985453;28;7186;-75
2023/01/22 01:13:29;;;;;;;;;;;;;;;3.77;58.35;102035.88;4972239;28;6965;-75
2023/01/22 01:16:05;;;;;;;;;;;;;;;3.77;58.04;102029.91;4993768;28;6808;-75
2023/01/22 01:18:32;;;;;;;;;;;;;;;3.77;57.24;102024.81;4986804;28;7212;-74
2023/01/22 01:20:59;;;;;;;;;;;;;;;3.78;57.88;102025.00;4983871;28;6808;-75
2023/01/22 01:23:27;;;;;;;;;;;;;;;3.78;57.96;102017.38;4982478;28;6939;-75
2023/01/22 01:25:53;;;;;;;;;;;;;;;3.80;58.35;102026.03;4984608;28;7277;-75
2023/01/22 01:28:19;;;;;;;;;;;;;;;3.82;58.48;102023.66;4971175;28;6999;-75
2023/01/22 01:30:45;;;;;;;;;;;;;;;3.84;57.39;102024.72;4984535;28;6828;-75
2023/01/22 01:33:11;;;;;;;;;;;;;;;3.87;58.43;102031.00;4984810;28;7133;-74
2023/01/22 01:35:37;;;;;;;;;;;;;;;3.90;57.38;102025.34;4985192;28;6803;-75
2023/01/22 01:38:03;;;;;;;;;;;;;;;3.91;57.63;102024.59;4984362;28;9072;-75
2023/01/22 01:40:29;;;;;;;;;;;;;;;3.92;57.28;102022.97;4983426;28;6788;-74
2023/01/22 01:42:54;;;;;;;;;;;;;;;3.93;58.07;102005.34;4985418;28;6836;-74
2023/01/22 01:45:20;;;;;;;;;;;;;;;3.94;58.37;102003.72;4983470;28;7222;-74
2023/01/22 01:47:55;;;;;;;;;;;;;;;3.97;57.50;101999.84;5000988;28;7295;-74
2023/01/22 01:50:25;;;;;;;;;;;;;;;3.99;58.31;102002.53;5000091;28;6808;-74
2023/01/22 01:52:51;;;;;;;;;;;;;;;4.02;57.51;102000.31;4993341;28;6804;-75
2023/01/22 01:55:24;;;;;;;;;;;;;;;4.03;57.47;102004.66;4988291;28;6804;-75
2023/01/22 01:57:52;;;;;;;;;;;;;;;4.05;58.05;102007.31;4988258;28;6954;-75
2023/01/22 02:00:19;;;;;;;;;;;;;;;4.05;57.50;101998.06;5005302;28;6868;-74
2023/01/22 02:02:45;;;;;;;;;;;;;;;4.09;57.55;102002.69;4995983;28;6811;-75
2023/01/22 02:05:10;;;;;;;;;;;;;;;4.12;57.28;102007.19;4988182;28;7021;-74
2023/01/22 02:07:36;;;;;;;;;;;;;;;4.12;57.84;102009.72;4988930;28;7178;-74
2023/01/22 02:10:05;;;;;;;;;;;;;;;4.14;58.17;102010.78;4991765;28;6764;-74
2023/01/22 02:12:32;;;;;;;;;;;;;;;4.14;57.32;101999.00;4973851;28;7109;-74
2023/01/22 02:15:02;;;;;;;;;;;;;;;4.15;58.30;102000.78;4988497;28;6982;-74
2023/01/22 02:17:28;;;;;;;;;;;;;;;4.16;58.61;101991.53;5005420;28;7019;-74
2023/01/22 02:19:53;;;;;;;;;;;;;;;4.16;58.47;101996.63;5006099;28;6902;-74
2023/01/22 02:22:24;;;;;;;;;;;;;;;4.19;58.15;101991.84;4990513;28;6776;-74
2023/01/22 02:24:50;;;;;;;;;;;;;;;4.19;57.46;101991.84;4992892;28;7051;-74
2023/01/22 02:27:16;;;;;;;;;;;;;;;4.21;57.95;101976.78;5007947;28;6772;-74
2023/01/22 02:29:41;;;;;;;;;;;;;;;4.23;57.70;101981.22;5008176;28;6775;-74
2023/01/22 02:32:07;;;;;;;;;;;;;;;4.26;58.27;101979.00;4986851;28;6944;-74
2023/01/22 02:34:33;;;;;;;;;;;;;;;4.27;57.96;101974.81;5003644;28;6975;-74
2023/01/22 02:36:59;;;;;;;;;;;;;;;4.29;57.29;101980.94;4986619;28;7229;-74
2023/01/22 02:39:25;;;;;;;;;;;;;;;4.30;57.93;101978.56;5004915;28;7404;-74
2023/01/22 02:41:51;;;;;;;;;;;;;;;4.33;57.67;101969.44;4988690;28;6772;-74
2023/01/22 02:44:17;;;;;;;;;;;;;;;4.33;57.27;101974.53;4990188;28;6803;-74
2023/01/22 02:46:43;;;;;;;;;;;;;;;4.35;57.72;101967.97;4998520;28;6780;-74
2023/01/22 02:49:08;;;;;;;;;;;;;;;4.36;57.65;101985.00;4987731;28;6832;-74
2023/01/22 02:51:34;;;;;;;;;;;;;;;4.36;57.64;101973.19;4987567;28;7102;-74
2023/01/22 02:53:59;;;;;;;;;;;;;;;4.37;57.74;101962.28;4987482;28;7296;-74
2023/01/22 02:56:25;;;;;;;;;;;;;;;4.40;58.08;101976.94;4984925;28;6800;-74
2023/01/22 02:58:51;;;;;;;;;;;;;;;4.41;57.55;101976.19;4986054;28;7289;-74
2023/01/22 03:01:21;;;;;;;;;;;;;;;4.43;58.27;101972.16;4986571;28;6792;-74
2023/01/22 03:04:09;;;;;;;;;;;;;;;4.43;57.80;101973.06;5000926;28;6950;-74
2023/01/22 03:06:39;;;;;;;;;;;;;;;4.45;57.96;101965.59;4964485;28;7102;-74
2023/01/22 03:09:05;;;;;;;;;;;;;;;4.46;57.95;101969.94;4997505;28;6872;-74
2023/01/22 03:11:34;;;;;;;;;;;;;;;4.48;58.06;101970.06;4994111;28;6780;-74
2023/01/22 03:22:15;;;;;;;;;;;;;;;4.47;57.16;101969.19;4989912;28;6850;-74
2023/01/22 03:24:52;;;;;;;;;;;;;;;4.47;57.88;101971.72;4989571;28;6807;-74
2023/01/22 03:27:24;;;;;;;;;;;;;;;4.48;57.73;101963.34;4986167;28;6816;-74
2023/01/22 03:29:50;;;;;;;;;;;;;;;4.48;57.23;101958.28;5001560;28;7016;-74
2023/01/22 03:32:16;;;;;;;;;;;;;;;4.50;57.54;101948.28;5004002;28;6829;-74
2023/01/22 03:34:42;;;;;;;;;;;;;;;4.52;57.63;101960.34;4984964;28;7169;-74
2023/01/22 03:37:11;;;;;;;;;;;;;;;4.51;57.30;101955.13;4993056;28;6800;-74
2023/01/22 03:39:39;;;;;;;;;;;;;;;4.49;57.21;101956.59;4986457;28;6904;-74
2023/01/22 03:42:05;;;;;;;;;;;;;;;4.49;57.46;101957.50;4986007;28;6780;-74
2023/01/22 03:44:30;;;;;;;;;;;;;;;4.49;57.69;101949.91;4993785;28;6836;-74
2023/01/22 03:46:56;;;;;;;;;;;;;;;4.48;57.05;101948.13;4985894;28;6772;-74
2023/01/22 03:49:22;;;;;;;;;;;;;;;4.49;57.16;101947.38;4993896;28;6963;-74
2023/01/22 03:51:48;;;;;;;;;;;;;;;4.50;57.72;101940.66;4990648;28;7001;-74
2023/01/22 03:54:15;;;;;;;;;;;;;;;4.49;57.63;101944.81;4977676;28;7525;-74
2023/01/22 03:56:42;;;;;;;;;;;;;;;4.49;57.49;101954.06;4986221;28;6942;-74
2023/01/22 03:59:09;;;;;;;;;;;;;;;4.49;57.75;101954.97;4988708;28;7536;-74
2023/01/22 04:01:35;;;;;;;;;;;;;;;4.50;57.78;101949.16;4985860;28;7161;-74
2023/01/22 04:04:01;;;;;;;;;;;;;;;4.51;57.46;101953.47;4988496;28;6976;-74
2023/01/22 04:06:29;;;;;;;;;;;;;;;4.50;57.69;101946.63;4988778;28;7737;-74
2023/01/22 04:08:55;;;;;;;;;;;;;;;4.50;57.54;101956.75;4989543;28;8612;-74
2023/01/22 04:11:22;;;;;;;;;;;;;;;4.50;57.23;101955.88;4990636;28;6792;-74
2023/01/22 04:13:48;;;;;;;;;;;;;;;4.50;56.98;101954.22;4991581;28;6788;-74
2023/01/22 04:16:15;;;;;;;;;;;;;;;4.54;57.00;101947.81;4976936;28;6934;-74
2023/01/22 04:18:42;;;;;;;;;;;;;;;4.53;56.92;101946.03;4987949;28;6848;-74
2023/01/22 04:21:08;;;;;;;;;;;;;;;4.51;56.87;101947.53;4983095;28;7197;-74
2023/01/22 04:23:34;;;;;;;;;;;;;;;4.51;57.41;101934.81;4988930;28;7268;-74
2023/01/22 04:25:59;;;;;;;;;;;;;;;4.49;57.54;101937.19;4996528;28;6860;-74
2023/01/22 04:28:25;;;;;;;;;;;;;;;4.48;57.33;101935.41;4984664;28;7290;-74
2023/01/22 04:30:53;;;;;;;;;;;;;;;4.50;57.30;101943.19;4987246;28;7275;-74
2023/01/22 04:33:19;;;;;;;;;;;;;;;4.48;57.24;101948.13;4987025;28;7063;-74
2023/01/22 04:35:50;;;;;;;;;;;;;;;4.47;57.41;101937.78;5001899;28;7023;-74
2023/01/22 04:38:16;;;;;;;;;;;;;;;4.47;56.79;101943.78;4994893;28;6819;-74
2023/01/22 04:40:42;;;;;;;;;;;;;;;4.46;57.55;101947.06;4985566;28;6771;-74
2023/01/22 04:43:09;;;;;;;;;;;;;;;4.45;57.13;101946.16;4986139;28;6836;-74
2023/01/22 04:45:34;;;;;;;;;;;;;;;4.46;57.47;101949.59;4984256;28;6788;-74
2023/01/22 04:48:00;;;;;;;;;;;;;;;4.44;57.23;101943.47;4986149;28;6764;-74
2023/01/22 04:50:30;;;;;;;;;;;;;;;4.43;57.57;101946.75;5000933;28;7109;-74
2023/01/22 04:52:57;;;;;;;;;;;;;;;4.42;56.94;101944.97;4985286;28;7337;-74
2023/01/22 04:55:25;;;;;;;;;;;;;;;4.42;57.58;101952.56;4978478;28;7309;-74
2023/01/22 04:57:55;;;;;;;;;;;;;;;4.42;56.86;101957.66;4983235;28;6792;-74
2023/01/22 05:00:21;;;;;;;;;;;;;;;4.42;57.00;101952.56;4995847;28;7241;-74
2023/01/22 05:02:47;;;;;;;;;;;;;;;4.40;57.02;101952.44;4982897;28;6799;-74
2023/01/22 05:05:12;;;;;;;;;;;;;;;4.39;57.55;101952.28;4999188;28;6775;-74
2023/01/22 05:07:38;;;;;;;;;;;;;;;4.35;57.37;101947.66;4984640;28;8003;-74
2023/01/22 05:10:04;;;;;;;;;;;;;;;4.35;57.21;101945.13;5000863;28;7026;-74
2023/01/22 05:12:30;;;;;;;;;;;;;;;4.34;57.25;101948.38;4983551;28;6788;-74
2023/01/22 05:14:55;;;;;;;;;;;;;;;4.33;57.58;101944.97;4984433;28;7181;-74
2023/01/22 05:17:21;;;;;;;;;;;;;;;4.33;57.04;101949.13;5002899;28;6779;-74
2023/01/22 05:19:47;;;;;;;;;;;;;;;4.33;57.36;101946.59;5000365;28;6784;-74
2023/01/22 05:22:12;;;;;;;;;;;;;;;4.34;57.05;101946.75;4985644;28;7086;-74
2023/01/22 05:24:38;;;;;;;;;;;;;;;4.35;57.42;101948.56;5002799;28;7716;-74
2023/01/22 05:27:04;;;;;;;;;;;;;;;4.36;57.34;101949.47;4999848;28;6788;-74
2023/01/22 05:29:29;;;;;;;;;;;;;;;4.37;56.75;101951.25;5006440;28;6966;-73
2023/01/22 05:31:56;;;;;;;;;;;;;;;4.37;56.87;101951.25;4985772;28;6815;-74
2023/01/22 05:34:24;;;;;;;;;;;;;;;4.36;57.18;101950.34;4988697;28;7058;-74
2023/01/22 05:36:49;;;;;;;;;;;;;;;4.37;56.91;101948.72;4994238;28;7924;-74
2023/01/22 05:39:16;;;;;;;;;;;;;;;4.37;56.50;101953.78;4982618;28;7152;-73
2023/01/22 05:41:42;;;;;;;;;;;;;;;4.38;56.42;101948.84;4989210;28;7283;-74
2023/01/22 05:44:13;;;;;;;;;;;;;;;4.40;56.64;101956.63;4989625;28;6775;-74
2023/01/22 05:46:39;;;;;;;;;;;;;;;4.39;57.20;101950.63;4957268;28;7329;-73
2023/01/22 05:49:06;;;;;;;;;;;;;;;4.41;57.27;101955.88;4999202;28;6817;-74
2023/01/22 05:51:32;;;;;;;;;;;;;;;4.40;56.50;101957.53;4983634;28;7306;-73
2023/01/22 05:53:58;;;;;;;;;;;;;;;4.40;56.83;101960.06;4987071;28;6799;-73
2023/01/22 05:56:24;;;;;;;;;;;;;;;4.40;56.68;101960.06;4997503;28;7081;-74
2023/01/22 05:58:50;;;;;;;;;;;;;;;4.42;57.26;101965.28;4985169;28;7220;-74
2023/01/22 06:01:16;;;;;;;;;;;;;;;4.43;57.16;101964.53;4999907;28;8215;-74
2023/01/22 06:03:42;;;;;;;;;;;;;;;4.43;56.86;101964.53;4990924;28;6788;-74
2023/01/22 06:06:12;;;;;;;;;;;;;;;4.43;56.97;101967.06;5003039;28;6788;-73
2023/01/22 06:08:38;;;;;;;;;;;;;;;4.44;57.21;101964.69;4982089;28;6983;-74
2023/01/22 06:11:10;;;;;;;;;;;;;;;4.44;57.34;101967.22;4972578;28;7236;-74
2023/01/22 06:13:37;;;;;;;;;;;;;;;4.45;56.72;101965.59;4990110;28;6796;-74
2023/01/22 06:16:03;;;;;;;;;;;;;;;4.47;56.65;101969.19;4960122;28;7312;-74
2023/01/22 06:18:29;;;;;;;;;;;;;;;4.46;57.13;101969.94;4989319;28;6860;-74
2023/01/22 06:21:04;;;;;;;;;;;;;;;4.45;56.61;101965.59;5005128;28;6826;-74
2023/01/22 06:23:30;;;;;;;;;;;;;;;4.46;56.31;101972.47;5000027;28;6827;-74
2023/01/22 06:26:00;;;;;;;;;;;;;;;4.46;56.55;101969.94;4977837;28;7386;-74
2023/01/22 06:28:26;;;;;;;;;;;;;;;4.47;56.62;101976.78;4991022;28;6800;-74
2023/01/22 06:30:56;;;;;;;;;;;;;;;4.47;56.92;101976.78;4984103;28;6811;-74
2023/01/22 06:33:23;;;;;;;;;;;;;;;4.48;57.10;101976.03;4987373;28;6986;-73
2023/01/22 06:35:55;;;;;;;;;;;;;;;4.46;56.49;101985.16;4989982;28;6788;-74
2023/01/22 06:38:22;;;;;;;;;;;;;;;4.48;57.40;101982.75;4986530;28;7116;-74
2023/01/22 06:40:56;;;;;;;;;;;;;;;4.47;57.41;101981.88;4988175;28;6784;-74
2023/01/22 06:43:23;;;;;;;;;;;;;;;4.48;57.33;101981.13;4989999;28;7324;-74
2023/01/22 06:45:50;;;;;;;;;;;;;;;4.48;56.28;101976.03;5002495;28;7013;-74
2023/01/22 06:48:15;;;;;;;;;;;;;;;4.48;56.98;101973.50;4990516;28;7185;-73
2023/01/22 06:50:42;;;;;;;;;;;;;;;4.48;57.19;101991.28;5001858;28;8538;-73
2023/01/22 06:53:07;;;;;;;;;;;;;;;4.49;57.21;101982.00;5005894;28;6923;-74
2023/01/22 06:55:34;;;;;;;;;;;;;;;4.48;56.75;101977.66;4991495;28;7917;-74
2023/01/22 06:57:59;;;;;;;;;;;;;;;4.48;56.39;101980.22;4985061;28;6779;-73
2023/01/22 07:00:25;;;;;;;;;;;;;;;4.46;56.46;101980.09;4987006;28;6779;-74
2023/01/22 07:02:51;;;;;;;;;;;;;;;4.47;56.38;101979.34;4983108;28;6799;-74
2023/01/22 07:05:18;;;;;;;;;;;;;;;4.49;56.53;101984.53;4997397;28;7408;-74
2023/01/22 07:07:45;;;;;;;;;;;;;;;4.48;57.10;101982.75;4989471;28;6815;-74
2023/01/22 07:10:11;;;;;;;;;;;;;;;4.48;56.57;101982.75;4994759;28;6883;-74
2023/01/22 07:12:37;;;;;;;;;;;;;;;4.47;57.09;101979.34;4983639;28;6800;-74
2023/01/22 07:15:05;;;;;;;;;;;;;;;4.49;56.35;101984.53;4990297;28;6792;-74
2023/01/22 07:17:31;;;;;;;;;;;;;;;4.48;56.90;101995.44;4987137;28;7076;-74
2023/01/22 07:19:57;;;;;;;;;;;;;;;4.45;56.47;101985.91;4990038;28;6985;-74
2023/01/22 07:22:22;;;;;;;;;;;;;;;4.47;56.56;101988.56;4988336;28;7049;-74
2023/01/22 07:24:48;;;;;;;;;;;;;;;4.49;56.46;101989.63;4989877;28;6925;-74
2023/01/22 07:27:14;;;;;;;;;;;;;;;4.49;56.66;101998.16;5004760;28;6780;-74
2023/01/22 07:29:40;;;;;;;;;;;;;;;4.49;57.10;101994.69;4985600;28;7130;-74
2023/01/22 07:32:05;;;;;;;;;;;;;;;4.49;57.31;102002.31;4981320;28;7308;-74
2023/01/22 07:34:31;;;;;;;;;;;;;;;4.48;56.95;101996.34;4998570;28;6779;-74
2023/01/22 07:36:57;;;;;;;;;;;;;;;4.48;56.71;102005.59;5005690;28;6780;-74
2023/01/22 07:39:22;;;;;;;;;;;;;;;4.49;57.04;102002.31;4986713;28;6855;-74
2023/01/22 07:41:48;;;;;;;;;;;;;;;4.50;56.61;102005.00;4996225;28;7178;-73
2023/01/22 07:44:15;;;;;;;;;;;;;;;4.50;56.83;102007.56;4989276;28;9039;-74
2023/01/22 07:46:40;;;;;;;;;;;;;;;4.50;56.64;102010.09;5002740;28;7242;-74
2023/01/22 07:49:06;;;;;;;;;;;;;;;4.50;57.33;102020.25;5003551;28;6995;-74
2023/01/22 07:51:32;;;;;;;;;;;;;;;4.50;56.68;102015.16;4970510;28;6947;-74
2023/01/22 07:53:58;;;;;;;;;;;;;;;4.51;56.72;102021.16;4978025;28;7147;-74
2023/01/22 07:56:24;;;;;;;;;;;;;;;4.52;56.81;102021.28;5003807;28;6795;-74
2023/01/22 07:58:50;;;;;;;;;;;;;;;4.51;56.73;102027.13;4984391;28;7114;-74
2023/01/22 08:01:16;;;;;;;;;;;;;;;4.53;56.42;102024.75;5002452;28;6934;-74
2023/01/22 08:03:42;;;;;;;;;;;;;;;4.54;56.67;102031.63;4986978;28;6800;-74
2023/01/22 08:06:09;;;;;;;;;;;;;;;4.56;56.64;102036.09;5002907;28;6827;-74
2023/01/22 08:08:35;;;;;;;;;;;;;;;4.58;56.56;102033.69;5004920;28;7097;-74
2023/01/22 08:11:00;;;;;;;;;;;;;;;4.59;56.70;102033.84;4987505;28;6836;-73
2023/01/22 08:13:26;;;;;;;;;;;;;;;4.61;56.24;102031.47;4988114;28;7194;-74
2023/01/22 08:15:53;;;;;;;;;;;;;;;4.63;56.94;102034.16;5002135;28;7200;-73
2023/01/22 08:18:20;;;;;;;;;;;;;;;4.65;56.95;102038.63;4988258;28;7002;-74
2023/01/22 08:20:46;;;;;;;;;;;;;;;4.65;56.45;102041.19;4994829;28;6870;-74
2023/01/22 08:23:12;;;;;;;;;;;;;;;4.67;56.83;102041.34;4986059;28;6800;-74
2023/01/22 08:25:37;;;;;;;;;;;;;;;4.67;57.24;102038.81;4983352;28;6840;-74
2023/01/22 08:28:05;;;;;;;;;;;;;;;4.67;56.62;102041.34;4989408;28;7033;-74
2023/01/22 08:30:32;;;;;;;;;;;;;;;4.70;57.28;102047.63;4985464;28;6980;-74
2023/01/22 08:32:58;;;;;;;;;;;;;;;4.72;56.70;102051.19;4978028;28;7431;-74
2023/01/22 08:35:23;;;;;;;;;;;;;;;4.74;56.96;102056.44;5000347;28;7071;-74
2023/01/22 08:37:49;;;;;;;;;;;;;;;4.75;56.91;102058.22;4985686;28;7059;-74
2023/01/22 08:40:15;;;;;;;;;;;;;;;4.76;56.68;102064.19;4986279;28;6955;-74
2023/01/22 08:42:41;;;;;;;;;;;;;;;4.79;57.31;102062.84;4993606;28;7246;-74
2023/01/22 08:45:07;;;;;;;;;;;;;;;4.80;57.03;102056.16;4959954;28;8429;-74
2023/01/22 08:47:33;;;;;;;;;;;;;;;4.81;56.38;102051.19;4987028;28;6987;-73
2023/01/22 08:50:00;;;;;;;;;;;;;;;4.85;56.73;102054.94;4977066;28;7049;-74
2023/01/22 08:52:26;;;;;;;;;;;;;;;4.85;56.71;102048.22;4986768;28;7552;-74
2023/01/22 08:54:52;;;;;;;;;;;;;;;4.86;56.66;102051.66;4994594;28;7549;-73
2023/01/22 08:57:17;;;;;;;;;;;;;;;4.90;56.53;102055.38;4988750;28;7857;-73
2023/01/22 08:59:43;;;;;;;;;;;;;;;4.91;56.92;102053.00;4992317;28;6787;-73
2023/01/22 09:02:12;;;;;;;;;;;;;;;4.97;56.97;102055.25;4988272;28;7130;-73
2023/01/22 09:04:38;;;;;;;;;;;;;;;5.01;56.55;102052.25;4977975;28;7960;-74
2023/01/22 09:07:04;;;;;;;;;;;;;;;5.04;56.83;102057.63;4970079;28;7156;-74
2023/01/22 09:09:29;;;;;;;;;;;;;;;5.05;56.47;102056.88;4989322;28;6969;-73
2023/01/22 09:11:55;;;;;;;;;;;;;;;5.07;56.98;102057.94;5000928;28;7190;-74
2023/01/22 09:14:21;;;;;;;;;;;;;;;5.08;56.34;102054.63;4996025;28;6775;-73
2023/01/22 09:16:46;;;;;;;;;;;;;;;5.11;56.35;102060.00;5005253;28;6898;-74
2023/01/22 09:19:12;;;;;;;;;;;;;;;5.11;56.68;102054.91;5001996;28;6948;-73
2023/01/22 09:21:38;;;;;;;;;;;;;;;5.12;56.48;102060.91;4985895;28;7522;-74
2023/01/22 09:24:05;;;;;;;;;;;;;;;5.11;56.86;102048.97;5000022;28;6783;-73
2023/01/22 09:26:31;;;;;;;;;;;;;;;5.13;56.88;102056.00;5001560;28;7102;-73
2023/01/22 09:28:59;;;;;;;;;;;;;;;5.14;56.17;102052.69;4979855;28;7789;-74
2023/01/22 09:31:26;;;;;;;;;;;;;;;5.16;56.09;102055.34;4981336;28;6796;-73
2023/01/22 09:33:54;;;;;;;;;;;;;;;5.18;56.82;102051.34;4965516;28;7067;-74
2023/01/22 09:36:20;;;;;;;;;;;;;;;5.21;56.92;102055.81;4975199;28;7150;-74
2023/01/22 09:38:45;;;;;;;;;;;;;;;5.25;56.58;102057.91;4967491;28;7003;-74
2023/01/22 09:41:39;;;;;;;;;;;;;;;5.30;56.95;102061.78;4980983;28;7868;-74
2023/01/22 09:44:33;;;;;;;;;;;;;;;5.35;56.56;102060.59;4979637;28;6987;-74
2023/01/22 09:47:10;;;;;;;;;;;;;;;5.44;56.54;102062.22;4981420;28;8382;-73
2023/01/22 09:50:01;;;;;;;;;;;;;;;5.52;56.73;102068.94;4970789;28;7937;-73
2023/01/22 09:52:32;;;;;;;;;;;;;;;5.61;56.55;102067.28;4971528;28;6824;-74
2023/01/22 09:54:57;;;;;;;;;;;;;;;5.68;56.05;102067.06;4973844;28;7690;-74
2023/01/22 09:57:23;;;;;;;;;;;;;;;5.74;56.47;102070.97;4956647;28;6808;-73
2023/01/22 09:59:54;;;;;;;;;;;;;;;5.76;55.86;102074.53;4967997;28;7148;-72
2023/01/22 10:02:22;;;;;;;;;;;;;;;5.78;55.78;102073.03;4982304;28;6804;-73
2023/01/22 10:04:56;;;;;;;;;;;;;;;5.81;56.09;102078.44;4996356;28;7057;-73
2023/01/22 10:07:35;;;;;;;;;;;;;;;5.82;55.87;102077.69;4983482;28;7338;-74
2023/01/22 10:10:18;;;;;;;;;;;;;;;5.85;55.84;102080.50;4978602;28;7429;-73
2023/01/22 10:13:09;;;;;;;;;;;;;;;5.86;55.35;102076.31;4985008;28;6812;-74
2023/01/22 10:15:36;;;;;;;;;;;;;;;5.88;55.67;102070.59;4990144;28;6808;-74
2023/01/22 10:18:25;;;;;;;;;;;;;;;5.87;55.63;102066.25;4986372;28;6824;-74
2023/01/22 10:20:53;;;;;;;;;;;;;;;5.89;55.72;102068.97;4988309;28;6804;-74
2023/01/22 10:23:28;;;;;;;;;;;;;;;5.93;55.63;102069.41;4991726;28;7817;-73
2023/01/22 10:26:10;;;;;;;;;;;;;;;5.97;55.85;102061.28;4989689;28;7144;-74
2023/01/22 10:28:35;;;;;;;;;;;;;;;6.02;55.75;102050.69;4961568;28;6983;-74
2023/01/22 10:31:01;;;;;;;;;;;;;;;6.04;55.52;102059.34;4984904;28;7760;-73
2023/01/22 10:33:27;;;;;;;;;;;;;;;6.06;55.02;102065.47;4982838;28;6779;-74
2023/01/22 10:35:55;;;;;;;;;;;;;;;6.06;55.45;102060.38;4983137;28;6943;-74
2023/01/22 10:38:31;;;;;;;;;;;;;;;6.11;55.68;102049.00;4984933;28;8077;-74
2023/01/22 10:41:03;;;;;;;;;;;;;;;6.19;55.75;102055.69;4989017;28;7623;-74
2023/01/22 10:43:35;;;;;;;;;;;;;;;6.27;55.21;102053.84;4987477;28;6788;-73
2023/01/22 10:46:27;;;;;;;;;;;;;;;6.33;55.69;102056.06;5003073;28;7196;-74
2023/01/22 10:49:04;;;;;;;;;;;;;;;6.44;55.58;102054.50;5006113;28;6827;-74
2023/01/22 10:51:37;;;;;;;;;;;;;;;6.48;54.99;102048.91;4978700;28;6868;-74
2023/01/22 10:54:29;;;;;;;;;;;;;;;6.47;54.94;102052.22;5003377;28;7219;-74
2023/01/22 10:57:30;;;;;;;;;;;;;;;6.44;54.78;102049.41;4988071;28;7209;-74
2023/01/22 11:00:17;;;;;;;;;;;;;;;6.43;55.09;102035.75;4989269;28;7246;-74
2023/01/22 11:02:47;;;;;;;;;;;;;;;6.50;55.53;102045.75;5005433;28;11303;-74
2023/01/22 11:05:20;;;;;;;;;;;;;;;6.61;55.69;102035.66;4987963;28;7323;-74
2023/01/22 11:07:56;;;;;;;;;;;;;;;6.74;55.61;102033.44;4984320;28;6825;-74
2023/01/22 11:10:48;;;;;;;;;;;;;;;6.86;55.22;102037.84;5006191;28;7023;-74
2023/01/22 11:13:37;;;;;;;;;;;;;;;6.91;55.38;102039.16;4984807;28;7129;-74
2023/01/22 11:16:12;;;;;;;;;;;;;;;6.90;54.28;102038.25;4987101;28;7873;-74
2023/01/22 11:18:50;;;;;;;;;;;;;;;6.86;54.54;102038.75;4997474;28;7324;-74
2023/01/22 11:21:24;;;;;;;;;;;;;;;6.79;53.73;102037.31;4986084;28;7286;-74
2023/01/22 11:24:14;;;;;;;;;;;;;;;6.74;54.39;102042.75;4985142;28;6816;-74
2023/01/22 11:27:07;;;;;;;;;;;;;;;6.69;54.33;102042.34;4961162;28;6998;-74
2023/01/22 11:30:37;;;;;;;;;;;;;;;6.64;54.70;102038.47;4986921;28;7953;-74
2023/01/22 11:33:40;;;;;;;;;;;;;;;6.64;54.07;102041.00;4944800;28;11313;-75
2023/01/22 11:36:20;;;;;;;;;;;;;;;6.63;54.43;102044.31;4985930;28;6971;-74
2023/01/22 11:39:23;;;;;;;;;;;;;;;6.62;54.73;102042.53;4985301;28;7309;-74
2023/01/22 11:42:09;;;;;;;;;;;;;;;6.59;54.74;102039.72;4992120;28;8058;-75
2023/01/22 11:44:51;;;;;;;;;;;;;;;6.56;54.61;102040.31;4992153;28;6829;-75
2023/01/22 11:47:25;;;;;;;;;;;;;;;6.51;54.25;102037.34;5001173;28;6823;-75
2023/01/22 11:50:19;;;;;;;;;;;;;;;6.50;54.70;102039.75;5003172;28;7007;-74
2023/01/22 11:52:53;;;;;;;;;;;;;;;6.46;54.64;102032.59;5002748;28;7064;-74
2023/01/22 11:56:03;;;;;;;;;;;;;;;6.44;54.56;102026.47;4987736;28;7004;-74
2023/01/22 11:58:48;;;;;;;;;;;;;;;6.45;54.90;102025.72;4989659;28;7353;-74
2023/01/22 12:02:01;;;;;;;;;;;;;;;6.50;55.24;102027.94;4974632;28;6990;-74
2023/01/22 12:05:19;;;;;;;;;;;;;;;6.51;55.15;102024.63;4995265;28;6958;-74
2023/01/22 12:08:16;;;;;;;;;;;;;;;6.49;54.76;102027.78;5003066;28;7092;-74
2023/01/22 12:11:02;;;;;;;;;;;;;;;6.45;54.97;102026.59;5000601;28;6800;-74
2023/01/22 12:13:46;;;;;;;;;;;;;;;6.42;54.56;102027.97;5001898;28;6811;-74
2023/01/22 12:16:34;;;;;;;;;;;;;;;6.41;54.63;102023.63;4984134;28;7197;-74
2023/01/22 12:19:43;;;;;;;;;;;;;;;6.39;54.29;102018.44;4991348;28;7278;-74
2023/01/22 12:22:31;;;;;;;;;;;;;;;6.33;54.49;102018.75;4993491;28;7055;-75
2023/01/22 12:25:46;;;;;;;;;;;;;;;6.28;54.68;102027.63;5000178;28;6989;-75
2023/01/22 12:28:33;;;;;;;;;;;;;;;6.26;54.45;102026.59;4943109;28;6846;-75
2023/01/22 12:31:31;;;;;;;;;;;;;;;6.23;54.31;102036.50;4937483;28;7262;-75
2023/01/22 12:34:03;;;;;;;;;;;;;;;6.21;54.58;102031.25;4995117;28;7022;-75
2023/01/22 12:36:32;;;;;;;;;;;;;;;6.23;54.86;102031.41;4983257;28;7669;-73
2023/01/22 12:39:24;;;;;;;;;;;;;;;6.27;54.76;102022.38;4983806;28;7218;-73
2023/01/22 12:42:04;;;;;;;;;;;;;;;6.27;54.84;102030.00;5005738;28;6969;-74
2023/01/22 12:44:53;;;;;;;;;;;;;;;6.25;54.89;102023.13;4999949;28;7029;-73
2023/01/22 12:48:04;;;;;;;;;;;;;;;6.24;54.37;102030.66;4986455;28;6879;-73
2023/01/22 12:50:29;;;;;;;;;;;;;;;6.14;54.15;102021.25;4987568;28;7227;-73
2023/01/22 12:53:19;;;;;;;;;;;;;;;6.07;54.66;102026.53;4970256;28;6949;-73
2023/01/22 12:55:55;;;;;;;;;;;;;;;6.03;54.68;102030.44;4995413;28;7646;-73
2023/01/22 12:58:29;;;;;;;;;;;;;;;5.98;55.03;102022.34;4976230;28;7309;-73
2023/01/22 13:01:10;;;;;;;;;;;;;;;5.95;54.78;102022.06;5002005;28;6858;-73
2023/01/22 13:03:38;;;;;;;;;;;;;;;5.94;55.05;102020.28;4999914;28;6922;-73
2023/01/22 13:06:30;;;;;;;;;;;;;;;5.93;54.98;102018.50;4968758;28;7244;-73
2023/01/22 13:08:56;;;;;;;;;;;;;;;5.92;55.15;102020.88;4984940;28;6945;-74
2023/01/22 13:11:37;;;;;;;;;;;;;;;5.91;54.81;102026.72;4989354;28;7268;-74
2023/01/22 13:14:22;;;;;;;;;;;;;;;5.86;54.99;102033.06;4985247;28;7038;-73
2023/01/22 13:16:53;;;;;;;;;;;;;;;5.80;54.78;102031.72;4975998;28;7196;-74
2023/01/22 13:19:31;;;;;;;;;;;;;;;5.79;55.68;102036.66;4982510;28;6792;-74
2023/01/22 13:22:01;;;;;;;;;;;;;;;5.76;55.29;102033.84;4982772;28;7209;-74
2023/01/22 13:24:26;;;;;;;;;;;;;;;5.77;55.30;102040.72;4979000;28;6804;-73
2023/01/22 13:27:00;;;;;;;;;;;;;;;5.76;55.36;102044.00;4996473;28;10891;-74